İstanbul, Turkey

7:46 AM EEST on October 25, 2014 (GMT +0300)
Balmumcu | Change Station
CLOSE
Current Station
Personal Weather Station
Location: Istanbul,
Elevation: 350 ft
Nearby Weather Stations

Elev 350 ft 41.06 °N, 29.02 °E | Updated 4 minutes ago

Light Rain Showers
Light Showers Rain
58.8 °F
Feels Like 58.8 °F
N
4.0
Wind Variable Wind from SSW
Gusts 4.0 mph

Today
High -- | Low -- °F
--% Chance of Precip.
Yesterday
High -- | Low -- °F
Precip. -- in
7:26 AM 6:09 PM
New Moon, 2% visible
Pressure 29.80 in
Visibility 6.2 miles
Clouds Few 1800 ft
Scattered Clouds 4000 ft
Mostly Cloudy 8000 ft
Dew Point 56 °F
Humidity 91%
Rainfall 0.20 in
Snow Depth Not available.
UV 0.0 out of 12
Pollen Not available.
Air Quality Not available.
Flu Activity Not available.
METAR LTBA 250420Z 27005KT 220V330 9999 -SHRA FEW018 SCT040 BKN080 16/13 Q1009 NOSIG

More Conditions Fewer Conditions

Pressure 29.80 in
Visibility 6.2 miles
Clouds Few 1800 ft
Scattered Clouds 4000 ft
Mostly Cloudy 8000 ft
Dew Point 56 °F
Humidity 91%
Rainfall 0.20 in
Snow Depth Not available.
UV 0.0 out of 12
Pollen Not available.
Air Quality Not available.
Flu Activity Not available.
METAR LTBA 250420Z 27005KT 220V330 9999 -SHRA FEW018 SCT040 BKN080 16/13 Q1009 NOSIG

More Conditions Fewer Conditions

10-Day Weather Forecast

Almanac

Astronomy

Oct. 25, 2014 Rise Set
Actual Time 7:26 AM EEST 6:09 PM EEST
Civil Twilight 6:58 AM EEST 6:37 PM EEST
Nautical Twilight 6:26 AM EEST 7:09 PM EEST
Astronomical Twilight 5:54 AM EEST 7:41 PM EEST
Moon 8:46 AM EEST 7:16 PM EEST
Length of Visible Light 11h 39m
Length of Day
10h 42m
Tomorrow will be 2m 31s shorter.
New Moon, 2% of the Moon is Illuminated
Today
New Moon
Oct 30
First Quarter
Nov 6
Full
Nov 14
Last Quarter
Nov 22
New

Yesterday's Extremes

Country Highs Country Lows

Community

WunderPhotos

Upload Photos

1,764,784 photos uploaded!

Nearby

Snow Depth

Not available.

Earthquake Activity

City Distance Mag. Time & Date
No recent earthquake activity has been reported nearby.
Minimum magnitude displayed is 2.5.

Coastal Water Temperatures

Place Temperature
No Stations Reporting

Nearby Weather Stations